METAR Data
IDs: Format: Raw Decoded Include TAF

Data at: 0823 UTC 03 Aug 2021

KACV 030753Z AUTO 10003KT 1/2SM R32/2800V4000FT FG VV002 11/11 A3010 RMK AO2 SLP197 T01060106 401560106
KACV 030727Z AUTO 13003KT 3/4SM R32/3000VP6000FT BR VV002 11/11 A3010 RMK AO2 T01060106
KACV 030720Z AUTO 16005KT 1/4SM R32/2200V4000FT FG VV002 11/11 A3010 RMK AO2 T01110106
KACV 030653Z AUTO 16003KT 1/2SM R32/1800V3000FT FG VV002 11/11 A3010 RMK AO2 SLP199 T01110106
KACV 030553Z AUTO 12004KT 1/2SM R32/1800V3500FT FG VV002 11/11 A3012 RMK AO2 SLP204 T01110106 10150 20111 58001
KACV 030537Z AUTO 15003KT 1/2SM R32/1800V3000FT FG VV002 11/11 A3012 RMK AO2 T01110106
KACV 030526Z AUTO 00000KT 1/4SM R32/1600V2600FT FG VV002 11/11 A3012 RMK AO2 T01110111
KACV 030503Z AUTO 22003KT 1/2SM R32/2600VP6000FT FG VV002 11/11 A3012 RMK AO2 T01110111
KACV 030453Z AUTO 26003KT 1SM R32/3000VP6000FT BR VV002 11/11 A3012 RMK AO2 SLP205 T01110106
KACV 030434Z AUTO 22003KT 1/2SM R32/2400VP6000FT FG VV002 11/11 A3012 RMK AO2 T01110106
KACV 030420Z AUTO 00000KT 1 3/4SM R32/3000VP6000FT BR OVC002 11/11 A3012 RMK AO2 T01110106
KACV 030353Z AUTO 00000KT 4SM BR OVC002 12/11 A3012 RMK AO2 SLP206 T01170111
KACV 030253Z AUTO 30007KT 10SM OVC004 12/11 A3012 RMK AO2 SLP205 T01220106 51001
KACV 030153Z AUTO 30006KT 10SM OVC004 12/11 A3012 RMK AO2 SLP203 T01220106
KACV 030053Z AUTO 31007KT 10SM OVC004 13/11 A3013 RMK AO2 SLP207 T01280106
KACV 030046Z AUTO 32007KT 10SM OVC004 13/11 A3013 RMK AO2 T01330111
KACV 022353Z AUTO 30009KT 10SM BKN008 14/11 A3012 RMK AO2 SLP204 T01440111 10156 20128 56008
KACV 022316Z AUTO 31008KT 10SM BKN008 15/11 A3012 RMK AO2 T01500111
KACV 022253Z AUTO 29006KT 10SM FEW008 15/11 A3012 RMK AO2 SLP205 T01500111
KACV 022153Z AUTO 26006KT 10SM CLR 14/11 A3013 RMK AO2 SLP207 T01440111
KACV 022100Z AUTO 28008KT 10SM SCT011 15/11 A3014 RMK AO2 T01500111
KACV 022053Z AUTO 25007KT 10SM BKN012 16/11 A3014 RMK AO2 SLP212 T01560111 58002
KACV 022020Z AUTO 24008KT 10SM BKN012 15/11 A3015 RMK AO2 T01500106
KACV 021953Z AUTO 26008KT 10SM CLR 15/11 A3015 RMK AO2 SLP214 T01500111
KACV 021930Z AUTO 25009KT 10SM SCT011 15/11 A3014 RMK AO2 T01500111
KACV 021905Z AUTO 25007KT 10SM OVC010 15/11 A3014 RMK AO2 T01500111
KACV 021853Z AUTO 27006KT 10SM OVC009 14/11 A3014 RMK AO2 SLP212 T01440111
KACV 021753Z AUTO 22004KT 10SM OVC007 13/11 A3015 RMK AO2 SLP214 60001 T01280111 10133 20111 53002
KACV 021653Z AUTO VRB03KT 10SM OVC009 13/11 A3013 RMK AO2 CIG 006V011 SLP210 T01280111
KACV 021636Z AUTO VRB03KT 10SM OVC009 12/11 A3014 RMK AO2 CIG 006V012 T01220111
KACV 021622Z AUTO 27004KT 10SM SCT007 OVC011 12/11 A3014 RMK AO2 T01170111
KACV 021600Z AUTO 26004KT 10SM BKN005 OVC009 12/12 A3014 RMK AO2 T01220117
KACV 021553Z AUTO 26003KT 6SM BR BKN003 OVC009 12/11 A3014 RMK AO2 SLP213 T01170111
KACV 021540Z AUTO 24003KT 3SM BR BKN003 OVC008 12/11 A3015 RMK AO2 T01170111
KACV 021513Z AUTO 27005KT 1 3/4SM R32/3500VP6000FT BR OVC003 11/11 A3015 RMK AO2 T01110106
KACV 021508Z AUTO 27005KT 3SM R32/4000VP6000FT BR OVC003 11/11 A3014 RMK AO2 T01110111
KACV 021453Z AUTO 25003KT 1SM R32/4500VP6000FT BR OVC003 11/11 A3014 RMK AO2 RAB30E42 SLP212 P0001 60001 T01110106 51007
KACV 021451Z AUTO 26003KT 1 1/4SM R32/4500VP6000FT BR OVC003 11/11 A3014 RMK AO2 RAB30E42 P0001
KACV 021441Z AUTO 25004KT 2 1/2SM -RA BR OVC003 11/11 A3014 RMK AO2 RAB30 P0001 T01110106
KACV 021429Z AUTO 00000KT 1 3/4SM BR OVC003 11/11 A3014 RMK AO2 P0001 T01110111
KACV 021419Z AUTO 00000KT 3SM BR OVC003 11/11 A3014 RMK AO2 T01110111
KACV 021409Z AUTO 29003KT 1 1/4SM BR OVC003 11/11 A3014 RMK AO2 T01110106
KACV 021400Z AUTO 31004KT 1 1/2SM R32/4500VP6000FT BR OVC005 11/11 A3014 RMK AO2 T01110106
KACV 021353Z AUTO 31004KT 1SM R32/4500VP6000FT BR BKN003 OVC007 11/11 A3013 RMK AO2 RAB39E49 SLP210 P0000 T01110106
KACV 021342Z AUTO 29003KT 3/4SM R32/P6000FT -RA BR OVC005 11/11 A3013 RMK AO2 RAB39 P0000 T01110106
KACV 021332Z AUTO 31004KT 1 3/4SM BR BKN004 OVC009 11/11 A3013 RMK AO2 CIG 002V007 T01110106
KACV 021314Z AUTO 29005KT 3SM BR OVC004 11/11 A3012 RMK AO2 CIG 002V008 T01110106
KACV 021253Z AUTO 33003KT 4SM BR OVC005 11/11 A3012 RMK AO2 CIG 003V007 SLP205 T01110106
KACV 021248Z AUTO 00000KT 3SM BR OVC005 11/11 A3012 RMK AO2 CIG 003V007
KACV 021153Z AUTO 29004KT 4SM BR OVC004 11/11 A3010 RMK AO2 SLP200 T01110106 10117 20111 51001
KACV 021053Z AUTO 00000KT 7SM BKN005 OVC009 12/11 A3010 RMK AO2 CIG 004V008 SLP198 T01170106
KACV 020953Z AUTO 28003KT 9SM BKN006 OVC010 12/11 A3010 RMK AO2 CIG 005V008 SLP197 T01170106
KACV 020853Z AUTO 00000KT 9SM BKN005 OVC010 11/11 A3010 RMK AO2 SLP198 T01110106 55001
KACV 020829Z AUTO 21005KT 9SM OVC004 11/11 A3010 RMK AO2 T01110106
KACV 020753Z AUTO 00000KT 10SM OVC005 12/11 A3010 RMK AO2 SLP197 T01170106 401670106
KACV 020653Z AUTO 00000KT 10SM OVC006 12/10 A3009 RMK AO2 SLP195 T01170100
KACV 020553Z AUTO 00000KT 10SM OVC006 12/10 A3010 RMK AO2 SLP199 T01170100 10144 20106 50008
KACV 020453Z AUTO 00000KT 10SM OVC005 11/11 A3011 RMK AO2 SLP200 T01110106
KACV 020403Z AUTO 00000KT 3SM BR OVC003 11/11 A3010 RMK AO2 T01110106
KACV 020400Z AUTO 00000KT 1 3/4SM R32/6000VP6000FT BR OVC003 11/11 A3010 RMK AO2 T01060106
KACV 020353Z AUTO 00000KT 3/4SM R32/2400VP6000FT BR VV003 11/11 A3009 RMK AO2 SLP196 T01110106
KACV 020334Z AUTO 29003KT 3/4SM R32/2800VP6000FT BR OVC003 11/11 A3008 RMK AO2 T01110106
KACV 020323Z AUTO 1 3/4SM R32/3500VP6000FT BR OVC003 11/11 A3008 RMK AO2 VIS 3/4V5 T01110106
KACV 020315Z AUTO 6SM BR OVC003 11/11 A3008 RMK AO2 T01110106
KACV 020307Z AUTO 2SM BR OVC003 11/11 A3008 RMK AO2 VIS 1V5 T01110106
KACV 020253Z AUTO 6SM BR BKN003 12/11 A3008 RMK AO2 SLP190 T01170106 56001
KACV 020251Z AUTO 6SM BR BKN003 11/11 A3008 RMK AO2
KACV 020211Z AUTO 22004KT 10SM FEW007 13/11 A3008 RMK AO2 T01280106
KACV 020153Z AUTO 18004KT 10SM BKN006 13/11 A3008 RMK AO2 SLP191 T01330111
KACV 020135Z AUTO 18006KT 10SM BKN005 13/11 A3008 RMK AO2 T01330111
KACV 020116Z AUTO 22008KT 10SM FEW003 13/11 A3008 RMK AO2 T01280106
KACV 020053Z AUTO 23006KT 10SM CLR 14/11 A3008 RMK AO2 SLP191 T01390111
KACV 020003Z AUTO 22008KT 8SM SCT003 13/11 A3008 RMK AO2 T01330111
KACV 012353Z AUTO 22009KT 10SM CLR 14/11 A3008 RMK AO2 SLP192 T01390111 10167 20133 58000
KACV 012253Z AUTO 23007KT 10SM CLR 16/11 A3008 RMK AO2 SLP190 T01610111
KACV 012153Z AUTO 21010KT 10SM CLR 16/12 A3009 RMK AO2 SLP192 T01610117
KACV 012053Z AUTO VRB05KT 10SM SCT004 16/12 A3008 RMK AO2 SLP191 T01560117 53005